Startpagina
METAR-TAF:

METAR-TAF

Vliegvelden :

Szeged, Hongarije

breedte: 46-15N, lengte: 020-06E, hoogte: 82 m

Actueel weer

Dit bericht is 37 minuten geleden gemaakt, om 22:09 UTC
Wind 6 kt uit het westen
Temperatuur 20°C
Vochtigheid 68%
Druk 1017 hPa
Zicht 10 km of meer
Verspreide wolken op 4600 ft, Cumulonimbus.
Verspreide wolken op 5300 ft
lichte regenbuien

METAR: LHUD 232209Z 27006KT 9999 -SHRA SCT046CB SCT053 20/14 Q1017

Tijdstip: 00:46 (22:46 UTC)


TAF: ontbreekt

Waarnemingen en weersverwachtingen van meer dan 4000 vliegvelden (METAR en TAF).

De beschikbare stations zijn de gele en rode punten op de kaart.

Ga met uw muis naar het station om de naam te zien.

Klik dan om waarnemingen en weersverwachtingen te zien.

kaart wijzigen: klik op de groene knoppen met een zwart kruis om in te zoomen, op de groene knop met een streepje om uit te zoomen of op de groene pijlen voor aangrenzende kaarten.


METAR-TAF: